createdAt,value
2023-04-23T00:04:39.715Z,66189.28
2023-04-23T00:09:44.966Z,66089.53
2023-04-23T00:14:49.504Z,66039.19
2023-04-23T00:19:54.806Z,66138.44
2023-04-23T00:24:58.943Z,66107.22
2023-04-23T00:30:03.313Z,66053.53
2023-04-23T00:35:09.650Z,66025.34
2023-04-23T00:40:13.769Z,66111.03
2023-04-23T00:45:18.145Z,66082.66
2023-04-23T00:50:24.139Z,66043.47
2023-04-23T00:55:28.201Z,66018.91
2023-04-23T01:00:32.105Z,65988.50
2023-04-23T01:05:37.899Z,66043.56
2023-04-23T01:10:42.077Z,66089.53
2023-04-23T01:15:46.710Z,66108.81
2023-04-23T01:20:52.667Z,66054.91
2023-04-23T01:25:59.026Z,66096.59
2023-04-23T01:31:04.139Z,66049.81
2023-04-23T01:36:09.628Z,66031.06
2023-04-23T01:41:15.504Z,65995.81
2023-04-23T01:46:19.700Z,66067.13
2023-04-23T01:51:25.811Z,66053.75
2023-04-23T01:56:33.427Z,66090.88
2023-04-23T02:01:45.328Z,66015.09
2023-04-23T02:06:52.206Z,66036.50
2023-04-23T02:11:57.785Z,66061.69
2023-04-23T02:17:02.445Z,66061.16
2023-04-23T02:22:07.521Z,66035.06
2023-04-23T02:27:12.972Z,66015.19
2023-04-23T02:32:17.155Z,65936.50
2023-04-23T02:37:21.457Z,65949.09
2023-04-23T02:42:26.878Z,65954.09
2023-04-23T02:47:31.566Z,65940.81
2023-04-23T02:52:35.841Z,66025.81
2023-04-23T02:57:41.545Z,66057.03
2023-04-23T03:02:45.866Z,65973.97
2023-04-23T03:07:49.994Z,65953.03
2023-04-23T03:12:56.551Z,65933.13
2023-04-23T03:18:01.473Z,65970.66
2023-04-23T03:23:06.516Z,65996.63
2023-04-23T03:28:12.126Z,66038.31
2023-04-23T03:33:16.079Z,66037.13
2023-04-23T03:38:20.082Z,66014.56
2023-04-23T03:43:26.137Z,66061.59
2023-04-23T03:48:42.063Z,66073.66
2023-04-23T03:53:52.649Z,66063.38
2023-04-23T03:59:21.249Z,66097.28
2023-04-23T04:04:27.281Z,66193.03
2023-04-23T04:09:32.658Z,66179.25
2023-04-23T04:14:40.188Z,66225.09
2023-04-23T04:19:44.362Z,66200.06
2023-04-23T04:24:48.609Z,66316.56
2023-04-23T04:29:53.994Z,66384.53
2023-04-23T04:34:58.502Z,66355.56
2023-04-23T04:40:02.728Z,66312.16
2023-04-23T04:45:10.233Z,66395.72
2023-04-23T04:50:14.158Z,66390.53
2023-04-23T04:55:18.266Z,66358.84
2023-04-23T05:00:27.990Z,66339.00
2023-04-23T05:05:33.566Z,66273.53
2023-04-23T05:10:37.638Z,66404.94
2023-04-23T05:15:43.040Z,66472.59
2023-04-23T05:20:46.987Z,66477.44
2023-04-23T05:25:54.168Z,66555.88
2023-04-23T05:31:00.234Z,66626.94
2023-04-23T05:36:04.327Z,66559.03
2023-04-23T05:41:08.303Z,66639.69
2023-04-23T05:46:13.629Z,66658.56
2023-04-23T05:51:17.645Z,66575.78
2023-04-23T05:56:22.249Z,66680.69
2023-04-23T06:01:28.810Z,66871.75
2023-04-23T06:06:33.108Z,66892.84
2023-04-23T06:11:37.170Z,66999.06
2023-04-23T06:16:42.517Z,66976.97
2023-04-23T06:21:46.520Z,66962.75
2023-04-23T06:26:50.560Z,66886.91
2023-04-23T06:32:02.681Z,66936.44
2023-04-23T06:37:06.721Z,66906.78
2023-04-23T06:42:10.632Z,66900.38
2023-04-23T06:47:27.981Z,66988.09
2023-04-23T06:52:32.018Z,66994.63
2023-04-23T06:57:36.104Z,67065.22
2023-04-23T07:02:41.510Z,67015.72
2023-04-23T07:07:46.647Z,67080.47
2023-04-23T07:12:51.587Z,67042.09
2023-04-23T07:17:56.963Z,67084.69
2023-04-23T07:23:01.203Z,67139.28
2023-04-23T07:28:05.309Z,67131.66
2023-04-23T07:33:10.837Z,67133.31
2023-04-23T07:38:14.741Z,67115.50
2023-04-23T07:43:18.912Z,67196.41
2023-04-23T07:48:24.302Z,67104.06
2023-04-23T07:53:29.290Z,67200.19
2023-04-23T07:58:33.902Z,67218.50
2023-04-23T08:03:40.689Z,67260.69
2023-04-23T08:08:44.789Z,67074.44
2023-04-23T08:13:48.956Z,67198.09
2023-04-23T08:19:04.955Z,67209.97
2023-04-23T08:24:10.128Z,67240.72
2023-04-23T08:29:14.105Z,67254.75
2023-04-23T08:34:19.478Z,67293.09
2023-04-23T08:39:23.851Z,67320.22
2023-04-23T08:44:28.663Z,67277.97
2023-04-23T08:49:35.768Z,67290.41
2023-04-23T08:54:46.454Z,67285.03
2023-04-23T08:59:50.468Z,67353.09
2023-04-23T09:05:04.545Z,67329.16
2023-04-23T09:10:11.422Z,67315.22
2023-04-23T09:15:15.662Z,67408.75
2023-04-23T09:20:21.955Z,67396.44
2023-04-23T09:25:26.149Z,67470.94
2023-04-23T09:30:31.504Z,67422.75
2023-04-23T09:35:38.500Z,67503.88
2023-04-23T09:40:44.253Z,67355.84
2023-04-23T09:45:51.110Z,67309.38
2023-04-23T09:50:57.599Z,67453.09
2023-04-23T09:56:01.716Z,67447.22
2023-04-23T10:01:08.886Z,67404.97
2023-04-23T10:06:30.528Z,67447.06
2023-04-23T10:11:35.508Z,67369.34
2023-04-23T10:16:48.659Z,67409.34
2023-04-23T10:22:02.263Z,67547.28
2023-04-23T10:27:28.357Z,67495.75
2023-04-23T10:32:40.693Z,67490.34
2023-04-23T10:37:48.410Z,67470.44
2023-04-23T10:42:52.953Z,67590.53
2023-04-23T10:47:57.350Z,67625.72
2023-04-23T10:53:03.707Z,67576.50
2023-04-23T10:58:09.200Z,67676.63
2023-04-23T11:03:32.770Z,67683.09
2023-04-23T11:08:39.468Z,67731.84
2023-04-23T11:13:53.938Z,67612.72
2023-04-23T11:18:59.928Z,67612.19
2023-04-23T11:24:08.582Z,67734.00
2023-04-23T11:29:15.648Z,67753.03
2023-04-23T11:34:20.105Z,67948.78
2023-04-23T11:39:25.906Z,67987.78
2023-04-23T11:44:30.226Z,67748.19
2023-04-23T11:49:34.840Z,67991.03
2023-04-23T11:54:41.995Z,67974.75
2023-04-23T11:59:46.993Z,68133.78
2023-04-23T12:04:50.925Z,67933.56
2023-04-23T12:10:00.131Z,67974.31
2023-04-23T12:15:08.542Z,67923.66
2023-04-23T12:20:18.879Z,68032.28
2023-04-23T12:25:25.047Z,68003.00
2023-04-23T12:30:31.861Z,68134.34
2023-04-23T12:35:40.491Z,68070.81
2023-04-23T12:40:45.824Z,68222.88
2023-04-23T12:45:49.905Z,68215.91
2023-04-23T12:50:55.804Z,68267.41
2023-04-23T12:56:01.387Z,68090.31
2023-04-23T13:01:05.538Z,67851.63
2023-04-23T13:06:09.642Z,67903.22
2023-04-23T13:11:14.932Z,68026.84
2023-04-23T13:16:19.263Z,67970.97
2023-04-23T13:21:24.951Z,68098.00
2023-04-23T13:26:32.113Z,68009.00
2023-04-23T13:31:36.150Z,68103.44
2023-04-23T13:36:41.760Z,68028.53
2023-04-23T13:41:59.168Z,67790.38
2023-04-23T13:47:10.645Z,67878.25
2023-04-23T13:52:15.656Z,68088.13
2023-04-23T13:57:21.020Z,68097.44
2023-04-23T14:02:25.139Z,68076.81
2023-04-23T14:07:29.490Z,68162.69
2023-04-23T14:12:34.817Z,68134.88
2023-04-23T14:17:40.765Z,68219.03
2023-04-23T14:22:49.703Z,68184.34
2023-04-23T14:27:57.228Z,68231.59
2023-04-23T14:33:01.331Z,68295.72
2023-04-23T14:38:05.538Z,68243.50
2023-04-23T14:43:15.528Z,68065.97
2023-04-23T14:48:20.201Z,68109.88
2023-04-23T14:53:24.207Z,68289.72
2023-04-23T14:58:33.652Z,68227.28
2023-04-23T15:03:40.276Z,68251.19
2023-04-23T15:08:44.139Z,68314.66
2023-04-23T15:13:59.960Z,68211.00
2023-04-23T15:19:06.394Z,68264.75
2023-04-23T15:24:10.623Z,68249.56
2023-04-23T15:29:16.189Z,68111.53
2023-04-23T15:34:20.134Z,68138.72
2023-04-23T15:39:24.235Z,68120.75
2023-04-23T15:44:29.684Z,68052.41
2023-04-23T15:49:33.695Z,67981.31
2023-04-23T15:54:37.647Z,67799.53
2023-04-23T15:59:43.260Z,67680.34
2023-04-23T16:04:47.621Z,67666.88
2023-04-23T16:09:51.587Z,67618.63
2023-04-23T16:14:56.994Z,67588.84
2023-04-23T16:20:01.152Z,67705.38
2023-04-23T16:25:05.653Z,67725.47
2023-04-23T16:30:11.993Z,67608.88
2023-04-23T16:35:16.022Z,67561.84
2023-04-23T16:40:21.578Z,67548.38
2023-04-23T16:45:27.026Z,67459.03
2023-04-23T16:50:30.911Z,67417.34
2023-04-23T16:55:35.186Z,67394.63
2023-04-23T17:00:40.718Z,67347.66
2023-04-23T17:05:45.741Z,67352.00
2023-04-23T17:10:49.756Z,67315.38
2023-04-23T17:15:55.570Z,67238.56
2023-04-23T17:20:59.522Z,67286.59
2023-04-23T17:26:03.671Z,67286.00
2023-04-23T17:31:09.247Z,67255.81
2023-04-23T17:36:13.498Z,67230.97
2023-04-23T17:41:19.242Z,67190.91
2023-04-23T17:46:24.471Z,67157.50
2023-04-23T17:51:28.561Z,67186.66
2023-04-23T17:56:32.684Z,67192.09
2023-04-23T18:01:38.619Z,67165.03
2023-04-23T18:06:42.751Z,67103.59
2023-04-23T18:11:46.699Z,67023.75
2023-04-23T18:16:52.153Z,67030.69
2023-04-23T18:21:56.843Z,67028.06
2023-04-23T18:27:03.451Z,67022.06
2023-04-23T18:32:08.814Z,66990.31
2023-04-23T18:37:33.244Z,66945.06
2023-04-23T18:42:37.420Z,66939.06
2023-04-23T18:47:51.298Z,66920.84
2023-04-23T18:52:55.851Z,66963.44
2023-04-23T18:57:59.840Z,66961.75
2023-04-23T19:03:15.165Z,67005.41
2023-04-23T19:08:28.553Z,67020.50
2023-04-23T19:13:32.714Z,66935.34
2023-04-23T19:18:38.639Z,66983.84
2023-04-23T19:23:42.529Z,67002.09
2023-04-23T19:28:46.749Z,66992.47
2023-04-23T19:33:52.113Z,66974.00
2023-04-23T19:38:56.257Z,67018.81
2023-04-23T19:44:00.352Z,66982.16
2023-04-23T19:49:05.751Z,66934.81
2023-04-23T19:54:09.795Z,66943.41
2023-04-23T19:59:15.451Z,66926.72
2023-04-23T20:04:20.794Z,66918.16
2023-04-23T20:09:25.557Z,66851.75
2023-04-23T20:14:30.046Z,66884.69
2023-04-23T20:19:35.524Z,66863.16
2023-04-23T20:24:40.438Z,66876.53
2023-04-23T20:29:44.545Z,66857.59
2023-04-23T20:34:49.945Z,66893.22
2023-04-23T20:39:53.973Z,66794.06
2023-04-23T20:44:58.355Z,66789.72
2023-04-23T20:50:03.735Z,66791.97
2023-04-23T20:55:08.541Z,66776.88
2023-04-23T21:00:14.308Z,66745.22
2023-04-23T21:05:19.486Z,66698.88
2023-04-23T21:10:23.663Z,66687.63
2023-04-23T21:15:29.711Z,66762.28
2023-04-23T21:20:34.957Z,66769.91
2023-04-23T21:25:39.955Z,66745.59
2023-04-23T21:30:49.002Z,66730.06
2023-04-23T21:35:54.846Z,66679.09
2023-04-23T21:40:58.548Z,66708.03
2023-04-23T21:46:02.688Z,66686.03
2023-04-23T21:51:08.066Z,66675.16
2023-04-23T21:56:11.921Z,66576.94
2023-04-23T22:01:16.628Z,66595.06
2023-04-23T22:06:23.292Z,66652.28
2023-04-23T22:11:27.245Z,66626.84
2023-04-23T22:16:31.597Z,66651.03
2023-04-23T22:21:36.913Z,66640.75
2023-04-23T22:26:40.978Z,66547.38
2023-04-23T22:31:44.857Z,66550.41
2023-04-23T22:36:50.314Z,66505.81
2023-04-23T22:41:54.455Z,66482.72
2023-04-23T22:46:58.403Z,66490.94
2023-04-23T22:52:03.918Z,66573.63
2023-04-23T22:57:09.991Z,66547.38
2023-04-23T23:02:14.162Z,66577.47
2023-04-23T23:07:20.094Z,66600.97
2023-04-23T23:12:24.044Z,66583.78
2023-04-23T23:17:27.941Z,66607.97
2023-04-23T23:22:33.270Z,66581.59
2023-04-23T23:27:37.214Z,66597.28
2023-04-23T23:32:41.177Z,66572.03
2023-04-23T23:37:46.648Z,66577.31
2023-04-23T23:42:50.641Z,66603.09
2023-04-23T23:47:54.712Z,66542.97
2023-04-23T23:53:00.029Z,66532.69
2023-04-23T23:58:03.922Z,66553.19
